sensor_id;sensor_type;location;lat;lon;timestamp;pressure;altitude;pressure_sealevel;temperature;humidity
53719;BME280;39616;48.872;9.390;2024-03-23T00:52:07;97624.84;;;7.52;100.00
53719;BME280;39616;48.872;9.390;2024-03-23T00:54:37;97617.25;;;7.54;100.00
53719;BME280;39616;48.872;9.390;2024-03-23T00:57:07;97622.63;;;7.54;100.00
53719;BME280;39616;48.872;9.390;2024-03-23T00:59:38;97606.22;;;7.50;100.00
53719;BME280;39616;48.872;9.390;2024-03-23T01:02:08;97606.44;;;7.54;100.00
53719;BME280;39616;48.872;9.390;2024-03-23T01:04:38;97604.06;;;7.52;100.00
53719;BME280;39616;48.872;9.390;2024-03-23T01:07:09;97599.72;;;7.51;100.00
53719;BME280;39616;48.872;9.390;2024-03-23T01:09:39;97601.03;;;7.54;100.00
53719;BME280;39616;48.872;9.390;2024-03-23T01:12:09;97595.16;;;7.84;100.00
53719;BME280;39616;48.872;9.390;2024-03-23T01:14:39;97582.44;;;8.17;99.44
53719;BME280;39616;48.872;9.390;2024-03-23T01:17:10;97582.56;;;8.40;98.50
53719;BME280;39616;48.872;9.390;2024-03-23T01:19:40;97572.94;;;8.61;96.71
53719;BME280;39616;48.872;9.390;2024-03-23T01:22:11;97581.63;;;8.86;94.69
53719;BME280;39616;48.872;9.390;2024-03-23T01:24:41;97565.84;;;9.15;91.23
53719;BME280;39616;48.872;9.390;2024-03-23T01:27:12;97569.63;;;9.51;87.90
53719;BME280;39616;48.872;9.390;2024-03-23T01:29:42;97574.22;;;9.73;86.93
53719;BME280;39616;48.872;9.390;2024-03-23T01:32:12;97564.78;;;9.92;85.70
53719;BME280;39616;48.872;9.390;2024-03-23T01:34:43;97538.09;;;10.08;83.64
53719;BME280;39616;48.872;9.390;2024-03-23T01:37:13;97535.63;;;10.21;83.58
53719;BME280;39616;48.872;9.390;2024-03-23T01:39:43;97535.63;;;10.21;84.50
53719;BME280;39616;48.872;9.390;2024-03-23T01:42:13;97540.47;;;10.32;81.61
53719;BME280;39616;48.872;9.390;2024-03-23T01:44:44;97537.47;;;10.43;80.72
53719;BME280;39616;48.872;9.390;2024-03-23T01:47:14;97538.75;;;10.45;80.89
53719;BME280;39616;48.872;9.390;2024-03-23T01:49:45;97536.25;;;10.57;80.42
53719;BME280;39616;48.872;9.390;2024-03-23T01:52:15;97530.50;;;10.68;79.42
53719;BME280;39616;48.872;9.390;2024-03-23T01:54:45;97531.81;;;10.79;78.62
53719;BME280;39616;48.872;9.390;2024-03-23T01:57:16;97519.53;;;10.81;78.46
53719;BME280;39616;48.872;9.390;2024-03-23T01:59:48;97514.44;;;10.88;77.77
53719;BME280;39616;48.872;9.390;2024-03-23T02:02:19;97503.72;;;11.01;77.55
53719;BME280;39616;48.872;9.390;2024-03-23T02:04:50;97505.81;;;11.04;76.94
53719;BME280;39616;48.872;9.390;2024-03-23T02:07:20;97499.13;;;11.10;76.23
53719;BME280;39616;48.872;9.390;2024-03-23T02:09:53;97488.59;;;11.17;75.66
53719;BME280;39616;48.872;9.390;2024-03-23T02:12:24;97478.38;;;11.14;76.92
53719;BME280;39616;48.872;9.390;2024-03-23T02:14:55;97485.38;;;11.15;76.57
53719;BME280;39616;48.872;9.390;2024-03-23T02:17:25;97487.31;;;11.15;76.54
53719;BME280;39616;48.872;9.390;2024-03-23T02:19:55;97485.72;;;11.13;76.65
53719;BME280;39616;48.872;9.390;2024-03-23T02:22:37;97481.56;;;11.16;76.40
53719;BME280;39616;48.872;9.390;2024-03-23T02:25:08;97483.47;;;11.16;76.91
53719;BME280;39616;48.872;9.390;2024-03-23T02:27:38;97477.72;;;11.17;76.95
53719;BME280;39616;48.872;9.390;2024-03-23T02:30:10;97482.03;;;11.18;76.40
53719;BME280;39616;48.872;9.390;2024-03-23T02:32:40;97466.38;;;11.15;76.90
53719;BME280;39616;48.872;9.390;2024-03-23T02:35:11;97461.13;;;11.10;77.08
53719;BME280;39616;48.872;9.390;2024-03-23T02:37:41;97460.66;;;10.99;77.87
53719;BME280;39616;48.872;9.390;2024-03-23T02:40:11;97457.00;;;10.95;77.73
53719;BME280;39616;48.872;9.390;2024-03-23T02:42:41;97461.13;;;10.93;78.25
53719;BME280;39616;48.872;9.390;2024-03-23T02:45:12;97455.72;;;10.93;78.04
53719;BME280;39616;48.872;9.390;2024-03-23T02:47:42;97455.88;;;10.96;78.15
53719;BME280;39616;48.872;9.390;2024-03-23T02:50:13;97453.00;;;10.93;78.47
53719;BME280;39616;48.872;9.390;2024-03-23T02:52:45;97455.72;;;10.93;78.81
53719;BME280;39616;48.872;9.390;2024-03-23T02:55:15;97451.88;;;10.85;79.40
53719;BME280;39616;48.872;9.390;2024-03-23T02:57:46;97447.25;;;10.85;79.47
53719;BME280;39616;48.872;9.390;2024-03-23T03:00:16;97443.91;;;10.88;79.88
53719;BME280;39616;48.872;9.390;2024-03-23T03:02:47;97436.91;;;10.87;79.56
53719;BME280;39616;48.872;9.390;2024-03-23T03:05:17;97447.44;;;10.98;79.14
53719;BME280;39616;48.872;9.390;2024-03-23T03:07:47;97437.84;;;10.92;79.71
53719;BME280;39616;48.872;9.390;2024-03-23T03:10:18;97442.00;;;10.98;79.45
53719;BME280;39616;48.872;9.390;2024-03-23T03:12:48;97440.56;;;10.92;80.23
53719;BME280;39616;48.872;9.390;2024-03-23T03:15:18;97434.66;;;10.89;80.24
53719;BME280;39616;48.872;9.390;2024-03-23T03:17:48;97434.66;;;10.89;80.18
53719;BME280;39616;48.872;9.390;2024-03-23T03:20:19;97423.63;;;10.86;80.47
53719;BME280;39616;48.872;9.390;2024-03-23T03:22:49;97417.94;;;10.79;81.35
53719;BME280;39616;48.872;9.390;2024-03-23T03:25:20;97413.94;;;10.76;81.30
53719;BME280;39616;48.872;9.390;2024-03-23T03:27:50;97420.94;;;10.77;80.99
53719;BME280;39616;48.872;9.390;2024-03-23T03:30:20;97413.13;;;10.67;82.48
53719;BME280;39616;48.872;9.390;2024-03-23T03:32:53;97412.66;;;10.65;82.93
53719;BME280;39616;48.872;9.390;2024-03-23T03:35:23;97411.19;;;10.68;82.59
53719;BME280;39616;48.872;9.390;2024-03-23T03:37:54;97410.56;;;10.62;83.31
53719;BME280;39616;48.872;9.390;2024-03-23T03:40:24;97412.16;;;10.54;83.86
53719;BME280;39616;48.872;9.390;2024-03-23T03:42:55;97404.34;;;10.53;84.17
53719;BME280;39616;48.872;9.390;2024-03-23T03:45:25;97401.97;;;10.43;84.81
53719;BME280;39616;48.872;9.390;2024-03-23T03:47:56;97399.72;;;10.45;84.74
53719;BME280;39616;48.872;9.390;2024-03-23T03:50:26;97415.34;;;10.48;84.62
53719;BME280;39616;48.872;9.390;2024-03-23T03:52:56;97406.88;;;10.49;84.50
53719;BME280;39616;48.872;9.390;2024-03-23T03:55:27;97398.44;;;10.33;85.23
53719;BME280;39616;48.872;9.390;2024-03-23T03:57:57;97402.19;;;10.15;86.80
53719;BME280;39616;48.872;9.390;2024-03-23T04:00:28;97391.13;;;9.94;88.25
53719;BME280;39616;48.872;9.390;2024-03-23T04:02:58;97377.91;;;9.84;90.20
53719;BME280;39616;48.872;9.390;2024-03-23T04:05:29;97361.94;;;9.74;90.08
53719;BME280;39616;48.872;9.390;2024-03-23T04:07:59;97349.50;;;9.64;91.43
53719;BME280;39616;48.872;9.390;2024-03-23T04:10:29;97346.31;;;9.62;93.44
53719;BME280;39616;48.872;9.390;2024-03-23T04:13:00;97339.50;;;9.73;92.73
53719;BME280;39616;48.872;9.390;2024-03-23T04:15:31;97347.19;;;9.88;92.33
53719;BME280;39616;48.872;9.390;2024-03-23T04:18:01;97347.69;;;10.08;91.47
53719;BME280;39616;48.872;9.390;2024-03-23T04:20:31;97330.78;;;10.20;89.10
53719;BME280;39616;48.872;9.390;2024-03-23T04:23:02;97318.38;;;10.10;89.21
53719;BME280;39616;48.872;9.390;2024-03-23T04:25:33;97319.47;;;9.91;90.14
53719;BME280;39616;48.872;9.390;2024-03-23T04:28:03;97315.47;;;9.89;90.13
53719;BME280;39616;48.872;9.390;2024-03-23T04:30:34;97321.06;;;9.84;91.16
53719;BME280;39616;48.872;9.390;2024-03-23T04:33:05;97312.75;;;9.80;92.23
53719;BME280;39616;48.872;9.390;2024-03-23T04:35:35;97320.25;;;9.83;91.31
53719;BME280;39616;48.872;9.390;2024-03-23T04:38:06;97355.78;;;9.90;91.93
53719;BME280;39616;48.872;9.390;2024-03-23T04:40:36;97386.00;;;9.75;95.23
53719;BME280;39616;48.872;9.390;2024-03-23T04:43:07;97416.75;;;9.39;100.00
53719;BME280;39616;48.872;9.390;2024-03-23T04:45:37;97412.78;;;9.14;100.00
53719;BME280;39616;48.872;9.390;2024-03-23T04:48:07;97421.13;;;9.04;100.00
53719;BME280;39616;48.872;9.390;2024-03-23T04:50:38;97425.38;;;8.97;100.00
53719;BME280;39616;48.872;9.390;2024-03-23T04:53:08;97418.81;;;8.89;100.00
53719;BME280;39616;48.872;9.390;2024-03-23T04:55:38;97403.19;;;8.86;100.00
53719;BME280;39616;48.872;9.390;2024-03-23T04:58:08;97410.50;;;8.85;100.00
53719;BME280;39616;48.872;9.390;2024-03-23T05:00:39;97397.13;;;8.80;100.00
53719;BME280;39616;48.872;9.390;2024-03-23T05:03:09;97404.22;;;8.76;100.00
53719;BME280;39616;48.872;9.390;2024-03-23T05:05:39;97409.63;;;8.76;100.00
53719;BME280;39616;48.872;9.390;2024-03-23T05:08:10;97407.44;;;8.78;100.00
53719;BME280;39616;48.872;9.390;2024-03-23T05:10:41;97404.13;;;8.81;100.00
53719;BME280;39616;48.872;9.390;2024-03-23T05:13:11;97419.13;;;8.87;100.00
53719;BME280;39616;48.872;9.390;2024-03-23T05:15:42;97413.41;;;8.89;100.00
53719;BME280;39616;48.872;9.390;2024-03-23T05:18:12;97406.09;;;8.89;100.00
53719;BME280;39616;48.872;9.390;2024-03-23T05:20:42;97399.69;;;8.85;100.00
53719;BME280;39616;48.872;9.390;2024-03-23T05:23:13;97396.56;;;8.92;100.00
53719;BME280;39616;48.872;9.390;2024-03-23T05:25:44;97399.38;;;8.87;100.00
53719;BME280;39616;48.872;9.390;2024-03-23T05:28:14;97413.22;;;8.85;100.00
53719;BME280;39616;48.872;9.390;2024-03-23T05:30:53;97424.09;;;8.94;100.00
53719;BME280;39616;48.872;9.390;2024-03-23T05:33:24;97422.81;;;8.91;100.00
53719;BME280;39616;48.872;9.390;2024-03-23T05:35:58;97422.63;;;8.88;100.00
53719;BME280;39616;48.872;9.390;2024-03-23T05:38:29;97433.91;;;8.90;100.00
53719;BME280;39616;48.872;9.390;2024-03-23T05:41:00;97429.31;;;8.90;100.00
53719;BME280;39616;48.872;9.390;2024-03-23T05:43:30;97445.22;;;8.92;100.00
53719;BME280;39616;48.872;9.390;2024-03-23T05:46:01;97438.56;;;8.98;100.00
53719;BME280;39616;48.872;9.390;2024-03-23T05:48:32;97446.50;;;8.94;100.00
53719;BME280;39616;48.872;9.390;2024-03-23T05:51:02;97457.31;;;8.94;100.00
53719;BME280;39616;48.872;9.390;2024-03-23T05:53:33;97473.47;;;8.86;100.00
53719;BME280;39616;48.872;9.390;2024-03-23T05:56:04;97478.88;;;8.86;100.00
53719;BME280;39616;48.872;9.390;2024-03-23T05:58:35;97491.09;;;8.83;100.00
53719;BME280;39616;48.872;9.390;2024-03-23T06:01:06;97481.63;;;8.72;100.00
53719;BME280;39616;48.872;9.390;2024-03-23T06:03:36;97491.44;;;8.68;100.00
53719;BME280;39616;48.872;9.390;2024-03-23T06:06:06;97498.09;;;8.62;100.00
53719;BME280;39616;48.872;9.390;2024-03-23T06:08:41;97482.69;;;8.49;100.00
53719;BME280;39616;48.872;9.390;2024-03-23T06:11:12;97490.00;;;8.48;100.00
53719;BME280;39616;48.872;9.390;2024-03-23T06:13:42;97476.28;;;8.44;100.00
53719;BME280;39616;48.872;9.390;2024-03-23T06:16:12;97488.81;;;8.40;100.00
53719;BME280;39616;48.872;9.390;2024-03-23T06:18:42;97492.59;;;8.39;100.00
53719;BME280;39616;48.872;9.390;2024-03-23T06:21:14;97490.50;;;8.36;100.00
53719;BME280;39616;48.872;9.390;2024-03-23T06:23:44;97504.50;;;8.38;100.00
53719;BME280;39616;48.872;9.390;2024-03-23T06:26:21;97521.41;;;8.30;100.00
53719;BME280;39616;48.872;9.390;2024-03-23T06:28:51;97522.91;;;8.36;100.00
53719;BME280;39616;48.872;9.390;2024-03-23T06:31:21;97511.59;;;8.34;100.00
53719;BME280;39616;48.872;9.390;2024-03-23T06:33:52;97501.97;;;8.28;100.00
53719;BME280;39616;48.872;9.390;2024-03-23T06:36:22;97506.19;;;8.34;100.00
53719;BME280;39616;48.872;9.390;2024-03-23T06:38:52;97524.22;;;8.39;100.00
53719;BME280;39616;48.872;9.390;2024-03-23T06:41:23;97529.94;;;8.37;100.00
53719;BME280;39616;48.872;9.390;2024-03-23T06:43:54;97554.81;;;8.34;100.00
53719;BME280;39616;48.872;9.390;2024-03-23T06:46:24;97565.41;;;8.31;100.00
53719;BME280;39616;48.872;9.390;2024-03-23T06:48:54;97569.44;;;8.33;100.00
53719;BME280;39616;48.872;9.390;2024-03-23T06:51:24;97580.63;;;8.27;100.00
53719;BME280;39616;48.872;9.390;2024-03-23T06:53:55;97585.63;;;8.33;100.00
53719;BME280;39616;48.872;9.390;2024-03-23T06:56:25;97580.41;;;8.23;100.00
53719;BME280;39616;48.872;9.390;2024-03-23T06:58:56;97585.50;;;8.24;100.00
53719;BME280;39616;48.872;9.390;2024-03-23T07:01:27;97589.31;;;8.23;100.00
53719;BME280;39616;48.872;9.390;2024-03-23T07:03:58;97600.03;;;8.15;100.00
53719;BME280;39616;48.872;9.390;2024-03-23T07:06:29;97611.31;;;8.17;100.00
53719;BME280;39616;48.872;9.390;2024-03-23T07:08:59;97612.22;;;8.12;100.00
53719;BME280;39616;48.872;9.390;2024-03-23T07:11:29;97618.22;;;8.23;100.00
53719;BME280;39616;48.872;9.390;2024-03-23T07:14:00;97611.25;;;8.22;100.00
53719;BME280;39616;48.872;9.390;2024-03-23T07:16:30;97637.41;;;8.40;100.00
53719;BME280;39616;48.872;9.390;2024-03-23T07:19:00;97629.44;;;8.30;100.00
53719;BME280;39616;48.872;9.390;2024-03-23T07:21:31;97643.06;;;8.25;100.00
53719;BME280;39616;48.872;9.390;2024-03-23T07:24:01;97645.94;;;8.15;100.00
53719;BME280;39616;48.872;9.390;2024-03-23T07:26:31;97649.63;;;8.19;100.00
53719;BME280;39616;48.872;9.390;2024-03-23T07:29:01;97635.94;;;8.15;100.00
53719;BME280;39616;48.872;9.390;2024-03-23T07:31:32;97636.44;;;8.31;100.00
53719;BME280;39616;48.872;9.390;2024-03-23T07:34:02;97645.06;;;8.33;100.00
53719;BME280;39616;48.872;9.390;2024-03-23T07:36:32;97642.84;;;8.35;100.00
53719;BME280;39616;48.872;9.390;2024-03-23T07:39:03;97650.13;;;8.40;100.00
53719;BME280;39616;48.872;9.390;2024-03-23T07:41:34;97651.41;;;8.56;100.00
53719;BME280;39616;48.872;9.390;2024-03-23T07:44:05;97643.50;;;8.46;100.00
53719;BME280;39616;48.872;9.390;2024-03-23T07:46:36;97659.91;;;8.50;100.00
53719;BME280;39616;48.872;9.390;2024-03-23T07:49:06;97663.09;;;8.38;100.00
53719;BME280;39616;48.872;9.390;2024-03-23T07:51:36;97677.88;;;8.27;100.00
53719;BME280;39616;48.872;9.390;2024-03-23T07:54:09;97684.16;;;8.22;100.00
53719;BME280;39616;48.872;9.390;2024-03-23T07:56:39;97671.16;;;8.24;100.00
53719;BME280;39616;48.872;9.390;2024-03-23T07:59:09;97695.44;;;8.24;100.00
53719;BME280;39616;48.872;9.390;2024-03-23T08:01:41;97704.34;;;8.11;100.00
53719;BME280;39616;48.872;9.390;2024-03-23T08:04:11;97702.75;;;8.23;100.00
53719;BME280;39616;48.872;9.390;2024-03-23T08:06:41;97716.63;;;8.03;100.00
53719;BME280;39616;48.872;9.390;2024-03-23T08:09:12;97723.31;;;8.06;100.00
53719;BME280;39616;48.872;9.390;2024-03-23T08:11:42;97727.78;;;7.96;100.00
53719;BME280;39616;48.872;9.390;2024-03-23T08:14:15;97730.94;;;7.66;100.00
53719;BME280;39616;48.872;9.390;2024-03-23T08:16:45;97747.31;;;7.50;100.00
53719;BME280;39616;48.872;9.390;2024-03-23T08:19:18;97750.84;;;7.27;100.00
53719;BME280;39616;48.872;9.390;2024-03-23T08:21:49;97758.94;;;7.03;100.00
53719;BME280;39616;48.872;9.390;2024-03-23T08:24:20;97770.66;;;6.93;100.00
53719;BME280;39616;48.872;9.390;2024-03-23T08:26:51;97789.69;;;6.78;100.00
53719;BME280;39616;48.872;9.390;2024-03-23T08:29:21;97778.56;;;6.85;100.00
53719;BME280;39616;48.872;9.390;2024-03-23T08:31:51;97791.22;;;6.55;100.00
53719;BME280;39616;48.872;9.390;2024-03-23T08:34:22;97792.50;;;6.34;100.00
53719;BME280;39616;48.872;9.390;2024-03-23T08:36:52;97813.72;;;6.40;100.00
53719;BME280;39616;48.872;9.390;2024-03-23T08:39:22;97822.63;;;6.36;100.00
53719;BME280;39616;48.872;9.390;2024-03-23T08:41:53;97845.31;;;6.64;100.00
53719;BME280;39616;48.872;9.390;2024-03-23T08:44:23;97856.84;;;6.69;100.00
53719;BME280;39616;48.872;9.390;2024-03-23T08:46:56;97868.97;;;7.30;100.00
53719;BME280;39616;48.872;9.390;2024-03-23T08:49:26;97872.00;;;7.71;100.00
53719;BME280;39616;48.872;9.390;2024-03-23T08:51:56;97866.91;;;7.70;100.00
53719;BME280;39616;48.872;9.390;2024-03-23T08:54:26;97860.06;;;7.54;100.00
53719;BME280;39616;48.872;9.390;2024-03-23T08:56:59;97855.34;;;6.87;100.00
53719;BME280;39616;48.872;9.390;2024-03-23T08:59:29;97849.09;;;7.21;100.00
53719;BME280;39616;48.872;9.390;2024-03-23T09:01:59;97844.16;;;7.52;100.00
53719;BME280;39616;48.872;9.390;2024-03-23T09:04:30;97840.28;;;7.58;100.00
53719;BME280;39616;48.872;9.390;2024-03-23T09:07:01;97849.69;;;7.66;100.00
53719;BME280;39616;48.872;9.390;2024-03-23T09:09:31;97874.34;;;7.78;100.00
53719;BME280;39616;48.872;9.390;2024-03-23T09:12:01;97899.22;;;7.75;100.00
53719;BME280;39616;48.872;9.390;2024-03-23T09:14:33;97893.94;;;7.65;100.00
53719;BME280;39616;48.872;9.390;2024-03-23T09:17:03;97897.44;;;7.41;100.00
53719;BME280;39616;48.872;9.390;2024-03-23T09:19:36;97907.50;;;7.60;100.00
53719;BME280;39616;48.872;9.390;2024-03-23T09:22:06;97914.72;;;7.40;100.00
53719;BME280;39616;48.872;9.390;2024-03-23T09:24:38;97930.03;;;7.45;100.00
53719;BME280;39616;48.872;9.390;2024-03-23T09:27:09;97934.63;;;7.44;100.00
53719;BME280;39616;48.872;9.390;2024-03-23T09:29:39;97928.22;;;7.64;100.00
53719;BME280;39616;48.872;9.390;2024-03-23T09:32:09;97931.66;;;7.70;100.00
53719;BME280;39616;48.872;9.390;2024-03-23T09:34:39;97934.00;;;8.01;100.00
53719;BME280;39616;48.872;9.390;2024-03-23T09:37:10;97928.41;;;8.40;100.00
53719;BME280;39616;48.872;9.390;2024-03-23T09:39:40;97923.78;;;8.59;98.54
53719;BME280;39616;48.872;9.390;2024-03-23T09:42:11;97928.56;;;8.24;85.20
53719;BME280;39616;48.872;9.390;2024-03-23T09:44:42;97926.28;;;8.32;85.42
53719;BME280;39616;48.872;9.390;2024-03-23T09:47:13;97930.19;;;8.26;84.57
53719;BME280;39616;48.872;9.390;2024-03-23T09:49:44;97934.47;;;8.69;82.34
53719;BME280;39616;48.872;9.390;2024-03-23T09:52:14;97937.31;;;8.35;81.04
53719;BME280;39616;48.872;9.390;2024-03-23T09:54:44;97924.50;;;8.46;82.85
53719;BME280;39616;48.872;9.390;2024-03-23T09:57:15;97915.97;;;8.58;83.31
53719;BME280;39616;48.872;9.390;2024-03-23T09:59:45;97925.38;;;9.12;80.54
53719;BME280;39616;48.872;9.390;2024-03-23T10:02:15;97906.50;;;10.72;77.39
53719;BME280;39616;48.872;9.390;2024-03-23T10:04:47;97908.97;;;11.36;76.30
53719;BME280;39616;48.872;9.390;2024-03-23T10:07:21;97913.78;;;11.39;74.14
53719;BME280;39616;48.872;9.390;2024-03-23T10:09:55;97915.97;;;11.28;70.96
53719;BME280;39616;48.872;9.390;2024-03-23T10:12:25;97919.19;;;11.08;70.20
53719;BME280;39616;48.872;9.390;2024-03-23T10:14:55;97922.81;;;10.58;70.64
53719;BME280;39616;48.872;9.390;2024-03-23T10:17:26;97912.41;;;10.74;67.41
53719;BME280;39616;48.872;9.390;2024-03-23T10:19:56;97903.41;;;10.65;70.71
53719;BME280;39616;48.872;9.390;2024-03-23T10:22:26;97906.22;;;10.24;65.51
53719;BME280;39616;48.872;9.390;2024-03-23T10:25:07;97909.38;;;9.76;64.96
53719;BME280;39616;48.872;9.390;2024-03-23T10:27:38;97908.41;;;9.25;63.79
53719;BME280;39616;48.872;9.390;2024-03-23T10:30:14;97903.19;;;8.63;65.29
53719;BME280;39616;48.872;9.390;2024-03-23T10:32:47;97900.38;;;8.87;66.92
53719;BME280;39616;48.872;9.390;2024-03-23T10:35:20;97897.56;;;8.60;68.07
53719;BME280;39616;48.872;9.390;2024-03-23T10:37:53;97908.50;;;8.50;69.23
53719;BME280;39616;48.872;9.390;2024-03-23T10:40:26;97908.72;;;8.34;69.05
53719;BME280;39616;48.872;9.390;2024-03-23T10:42:58;97904.09;;;8.16;71.77
53719;BME280;39616;48.872;9.390;2024-03-23T10:45:29;97902.72;;;8.18;73.71
53719;BME280;39616;48.872;9.390;2024-03-23T10:47:59;97908.69;;;7.96;72.77
53719;BME280;39616;48.872;9.390;2024-03-23T10:50:30;97910.84;;;7.94;75.02
53719;BME280;39616;48.872;9.390;2024-03-23T10:53:00;97918.09;;;7.75;75.86
53719;BME280;39616;48.872;9.390;2024-03-23T10:55:32;97910.66;;;7.67;80.24
53719;BME280;39616;48.872;9.390;2024-03-23T10:58:04;97912.47;;;7.47;82.59
53719;BME280;39616;48.872;9.390;2024-03-23T11:00:35;97928.44;;;7.44;85.90
53719;BME280;39616;48.872;9.390;2024-03-23T11:06:00;97959.03;;;6.61;88.16
53719;BME280;39616;48.872;9.390;2024-03-23T11:08:38;97989.91;;;6.34;98.40
53719;BME280;39616;48.872;9.390;2024-03-23T11:11:18;98013.72;;;6.01;100.00
53719;BME280;39616;48.872;9.390;2024-03-23T11:13:51;98027.22;;;5.50;100.00
53719;BME280;39616;48.872;9.390;2024-03-23T11:16:26;98036.13;;;5.05;100.00
53719;BME280;39616;48.872;9.390;2024-03-23T11:19:36;98028.56;;;4.92;100.00
53719;BME280;39616;48.872;9.390;2024-03-23T11:22:07;98021.88;;;5.04;100.00
53719;BME280;39616;48.872;9.390;2024-03-23T11:24:38;98018.63;;;4.92;100.00
53719;BME280;39616;48.872;9.390;2024-03-23T11:27:17;97968.09;;;5.35;100.00
53719;BME280;39616;48.872;9.390;2024-03-23T11:29:47;97957.72;;;5.88;100.00
53719;BME280;39616;48.872;9.390;2024-03-23T11:32:18;97962.47;;;6.27;100.00
53719;BME280;39616;48.872;9.390;2024-03-23T11:34:48;97958.00;;;6.51;100.00
53719;BME280;39616;48.872;9.390;2024-03-23T11:37:18;97958.59;;;7.22;100.00
53719;BME280;39616;48.872;9.390;2024-03-23T11:39:49;97963.38;;;7.54;100.00
53719;BME280;39616;48.872;9.390;2024-03-23T11:42:19;97971.44;;;7.83;100.00
53719;BME280;39616;48.872;9.390;2024-03-23T11:44:51;97972.13;;;8.42;100.00
53719;BME280;39616;48.872;9.390;2024-03-23T11:47:22;97970.03;;;9.28;100.00
53719;BME280;39616;48.872;9.390;2024-03-23T11:49:52;97974.44;;;8.30;97.85
53719;BME280;39616;48.872;9.390;2024-03-23T11:52:22;97984.84;;;7.93;100.00
53719;BME280;39616;48.872;9.390;2024-03-23T11:55:03;97974.66;;;8.09;100.00
53719;BME280;39616;48.872;9.390;2024-03-23T11:57:34;97969.34;;;8.04;100.00
53719;BME280;39616;48.872;9.390;2024-03-23T12:00:20;97958.25;;;7.82;97.28
53719;BME280;39616;48.872;9.390;2024-03-23T12:02:50;97955.66;;;7.71;96.78
53719;BME280;39616;48.872;9.390;2024-03-23T12:05:21;97954.03;;;7.94;100.00
53719;BME280;39616;48.872;9.390;2024-03-23T12:07:52;97949.34;;;7.81;100.00
53719;BME280;39616;48.872;9.390;2024-03-23T12:10:22;97941.25;;;7.81;100.00
53719;BME280;39616;48.872;9.390;2024-03-23T12:13:00;97951.34;;;7.94;100.00
53719;BME280;39616;48.872;9.390;2024-03-23T12:15:30;97944.19;;;7.85;100.00
53719;BME280;39616;48.872;9.390;2024-03-23T12:18:08;97956.28;;;7.87;99.97
53719;BME280;39616;48.872;9.390;2024-03-23T12:20:38;97953.25;;;7.70;95.28
53719;BME280;39616;48.872;9.390;2024-03-23T12:23:12;97949.28;;;7.62;98.10
53719;BME280;39616;48.872;9.390;2024-03-23T12:25:43;97951.47;;;7.60;94.04
53719;BME280;39616;48.872;9.390;2024-03-23T12:28:13;97951.78;;;7.54;96.62
53719;BME280;39616;48.872;9.390;2024-03-23T12:30:43;97944.03;;;7.47;95.91
53719;BME280;39616;48.872;9.390;2024-03-23T12:33:14;97956.28;;;7.63;94.56
53719;BME280;39616;48.872;9.390;2024-03-23T12:35:44;97946.13;;;7.55;90.81
53719;BME280;39616;48.872;9.390;2024-03-23T12:38:14;97954.34;;;7.40;83.63
53719;BME280;39616;48.872;9.390;2024-03-23T12:40:49;97930.81;;;7.74;88.77
53719;BME280;39616;48.872;9.390;2024-03-23T12:43:19;97935.44;;;7.93;80.03
53719;BME280;39616;48.872;9.390;2024-03-23T12:45:50;97926.16;;;8.23;81.10
53719;BME280;39616;48.872;9.390;2024-03-23T12:48:20;97922.16;;;8.39;77.47
53719;BME280;39616;48.872;9.390;2024-03-23T12:50:54;97925.63;;;8.45;76.68
53719;BME280;39616;48.872;9.390;2024-03-23T12:53:25;97922.59;;;8.46;75.74
53719;BME280;39616;48.872;9.390;2024-03-23T12:55:55;97932.91;;;8.63;76.41
53719;BME280;39616;48.872;9.390;2024-03-23T12:58:27;97938.91;;;8.60;74.54
53719;BME280;39616;48.872;9.390;2024-03-23T13:00:58;97937.66;;;8.53;74.16
53719;BME280;39616;48.872;9.390;2024-03-23T13:03:28;97935.09;;;8.42;73.35
53719;BME280;39616;48.872;9.390;2024-03-23T13:05:59;97931.03;;;8.45;72.76
53719;BME280;39616;48.872;9.390;2024-03-23T13:08:29;97918.88;;;8.61;74.78
53719;BME280;39616;48.872;9.390;2024-03-23T13:10:59;97926.41;;;8.45;70.22
53719;BME280;39616;48.872;9.390;2024-03-23T13:13:30;97928.44;;;8.54;72.05
53719;BME280;39616;48.872;9.390;2024-03-23T13:16:02;97913.47;;;8.80;68.86
53719;BME280;39616;48.872;9.390;2024-03-23T13:18:33;97905.22;;;9.37;69.47
53719;BME280;39616;48.872;9.390;2024-03-23T13:21:04;97899.03;;;9.91;69.13
53719;BME280;39616;48.872;9.390;2024-03-23T13:23:34;97905.53;;;9.77;67.22
53719;BME280;39616;48.872;9.390;2024-03-23T13:26:05;97900.22;;;9.99;68.01
53719;BME280;39616;48.872;9.390;2024-03-23T13:28:37;97892.50;;;9.92;65.92
53719;BME280;39616;48.872;9.390;2024-03-23T13:31:08;97888.97;;;9.78;64.83
53719;BME280;39616;48.872;9.390;2024-03-23T13:33:38;97893.19;;;9.57;66.59
53719;BME280;39616;48.872;9.390;2024-03-23T13:36:09;97884.88;;;9.81;64.75
53719;BME280;39616;48.872;9.390;2024-03-23T13:38:40;97889.88;;;9.60;63.02
53719;BME280;39616;48.872;9.390;2024-03-23T13:41:10;97881.16;;;9.63;65.13
53719;BME280;39616;48.872;9.390;2024-03-23T13:43:42;97869.72;;;9.52;64.38
53719;BME280;39616;48.872;9.390;2024-03-23T13:46:12;97867.91;;;9.34;66.10
53719;BME280;39616;48.872;9.390;2024-03-23T13:48:43;97849.69;;;9.39;62.70
53719;BME280;39616;48.872;9.390;2024-03-23T13:51:13;97844.25;;;9.95;61.97
53719;BME280;39616;48.872;9.390;2024-03-23T13:53:43;97836.78;;;10.28;63.76
53719;BME280;39616;48.872;9.390;2024-03-23T13:56:13;97842.81;;;10.70;61.23
53719;BME280;39616;48.872;9.390;2024-03-23T13:58:44;97850.59;;;10.62;59.92
53719;BME280;39616;48.872;9.390;2024-03-23T14:01:17;97842.88;;;10.20;59.48
53719;BME280;39616;48.872;9.390;2024-03-23T14:03:48;97839.16;;;10.29;57.80
53719;BME280;39616;48.872;9.390;2024-03-23T14:06:19;97846.81;;;10.13;61.29
53719;BME280;39616;48.872;9.390;2024-03-23T14:08:49;97901.63;;;9.69;58.26
53719;BME280;39616;48.872;9.390;2024-03-23T14:11:21;97945.03;;;8.04;70.28
53719;BME280;39616;48.872;9.390;2024-03-23T14:13:51;97939.72;;;7.17;77.99
53719;BME280;39616;48.872;9.390;2024-03-23T14:16:21;97950.31;;;6.29;87.83